Time;durP1;ratioP1;P1;durP2;ratioP2;P2;SDS_P1;SDS_P2;PMS_P1;PMS_P2;Temp;Humidity;BMP_temperature;BMP_pressure;BME280_temperature;BME280_humidity;BME280_pressure;Samples;Min_cycle;Max_cycle;Signal;HPM_P1;HPM_P2
2023/12/23 00:04:06;;;;;;;;;;;;;;;8.67;74.71;101734.09;10422858;27;97238;-83
2023/12/23 00:09:09;;;;;;;;;;;;;;;8.66;74.59;101729.72;10423620;28;96797;-83
2023/12/23 00:14:12;;;;;;;;;;;;;;;8.73;74.25;101728.78;10422948;28;96795;-83
2023/12/23 00:19:16;;;;;;;;;;;;;;;8.75;73.81;101722.66;10422526;28;96639;-83
2023/12/23 00:24:20;;;;;;;;;;;;;;;8.72;74.54;101721.81;10421115;27;97631;-82
2023/12/23 00:29:23;;;;;;;;;;;;;;;8.68;74.24;101713.09;10422198;28;97498;-83
2023/12/23 00:34:27;;;;;;;;;;;;;;;8.72;74.45;101709.53;10421679;27;96735;-82
2023/12/23 00:39:30;;;;;;;;;;;;;;;8.73;74.06;101702.53;10421915;28;96619;-83
2023/12/23 00:44:33;;;;;;;;;;;;;;;8.70;73.85;101692.97;10421985;28;96633;-83
2023/12/23 00:49:38;;;;;;;;;;;;;;;8.70;74.41;101699.97;10421777;28;96826;-83
2023/12/23 00:54:41;;;;;;;;;;;;;;;8.70;74.30;101697.34;10420909;28;97218;-83
2023/12/23 00:59:46;;;;;;;;;;;;;;;8.64;73.25;101690.38;10380493;28;96842;-83
2023/12/23 01:04:54;;;;;;;;;;;;;;;8.58;74.34;101677.34;10379946;28;96672;-83
2023/12/23 01:09:58;;;;;;;;;;;;;;;8.59;73.73;101689.56;10379458;28;96628;-83
2023/12/23 01:15:02;;;;;;;;;;;;;;;8.59;74.41;101693.91;10378084;28;97007;-83
2023/12/23 01:20:10;;;;;;;;;;;;;;;8.53;74.95;101700.09;10379189;28;96642;-83
2023/12/23 01:25:14;;;;;;;;;;;;;;;8.47;75.11;101694.03;10378657;28;96629;-83
2023/12/23 01:30:18;;;;;;;;;;;;;;;8.45;74.49;101690.53;10378541;28;96878;-83
2023/12/23 01:35:24;;;;;;;;;;;;;;;8.46;75.11;101689.66;10378489;28;96574;-83
2023/12/23 01:40:29;;;;;;;;;;;;;;;8.40;74.69;101681.84;10378575;28;96745;-83
2023/12/23 01:45:33;;;;;;;;;;;;;;;8.38;74.99;101683.59;10377232;28;96685;-83
2023/12/23 01:50:41;;;;;;;;;;;;;;;8.25;75.16;101682.84;10388517;28;97157;-82
2023/12/23 01:55:45;;;;;;;;;;;;;;;8.23;75.20;101676.75;10419365;28;96698;-83
2023/12/23 02:00:50;;;;;;;;;;;;;;;8.26;75.85;101681.94;10419331;27;96625;-84
2023/12/23 02:05:56;;;;;;;;;;;;;;;8.25;75.33;101676.72;10418145;28;96670;-83
2023/12/23 02:11:05;;;;;;;;;;;;;;;8.20;75.59;101683.75;10419407;28;97675;-84
2023/12/23 02:16:10;;;;;;;;;;;;;;;8.18;75.39;101673.28;10419177;27;96713;-83
2023/12/23 02:21:17;;;;;;;;;;;;;;;8.20;75.62;101668.91;10419532;28;97100;-83
2023/12/23 02:26:23;;;;;;;;;;;;;;;8.16;75.82;101677.66;10418308;28;97188;-84
2023/12/23 02:31:27;;;;;;;;;;;;;;;8.19;75.69;101666.25;10418740;28;97021;-84
2023/12/23 02:36:32;;;;;;;;;;;;;;;8.15;75.95;101673.28;10418278;28;96605;-83
2023/12/23 02:41:35;;;;;;;;;;;;;;;8.15;75.66;101661.94;10419200;28;97507;-84
2023/12/23 02:46:39;;;;;;;;;;;;;;;8.14;75.45;101668.06;10418413;28;97365;-83
2023/12/23 02:51:43;;;;;;;;;;;;;;;8.08;76.27;101668.13;10417757;28;97153;-83
2023/12/23 02:56:46;;;;;;;;;;;;;;;7.97;76.24;101665.56;10416814;28;96771;-83
2023/12/23 03:01:49;;;;;;;;;;;;;;;7.90;76.73;101672.59;10425280;28;96629;-83
2023/12/23 03:06:54;;;;;;;;;;;;;;;7.83;76.53;101668.28;10425406;28;96982;-83
2023/12/23 03:11:57;;;;;;;;;;;;;;;7.76;77.07;101679.66;10424616;28;97847;-83
2023/12/23 03:17:00;;;;;;;;;;;;;;;7.75;77.35;101677.06;10424791;28;96680;-83
2023/12/23 03:22:07;;;;;;;;;;;;;;;7.71;77.31;101667.47;10424600;28;96932;-84
2023/12/23 03:27:11;;;;;;;;;;;;;;;7.69;77.27;101677.06;10424157;28;96888;-84
2023/12/23 03:32:17;;;;;;;;;;;;;;;7.70;77.15;101671.81;10425248;28;96695;-83
2023/12/23 03:37:24;;;;;;;;;;;;;;;7.64;77.70;101665.75;10424044;28;96607;-83
2023/12/23 03:42:29;;;;;;;;;;;;;;;7.63;77.72;101653.56;10424212;28;97478;-83
2023/12/23 03:47:33;;;;;;;;;;;;;;;7.58;77.61;101650.94;10422537;28;96582;-83
2023/12/23 03:52:41;;;;;;;;;;;;;;;7.48;77.98;101637.88;10423682;28;96792;-82
2023/12/23 03:57:45;;;;;;;;;;;;;;;7.50;77.96;101637.03;10423100;28;97384;-83
2023/12/23 04:02:49;;;;;;;;;;;;;;;7.49;77.98;101640.50;10423427;28;96659;-83
2023/12/23 04:07:57;;;;;;;;;;;;;;;7.44;78.26;101638.81;10422716;27;97059;-83
2023/12/23 04:13:01;;;;;;;;;;;;;;;7.39;78.21;101625.72;10422657;28;97335;-83
2023/12/23 04:18:05;;;;;;;;;;;;;;;7.41;78.15;101625.69;10422789;28;97347;-83
2023/12/23 04:23:11;;;;;;;;;;;;;;;7.42;78.18;101617.88;10423421;28;96728;-83
2023/12/23 04:28:20;;;;;;;;;;;;;;;7.45;78.27;101615.22;10422180;27;97490;-84
2023/12/23 04:33:24;;;;;;;;;;;;;;;7.41;77.91;101616.13;10422468;28;97509;-83
2023/12/23 04:38:31;;;;;;;;;;;;;;;7.40;77.77;101624.84;10420665;28;96957;-83
2023/12/23 04:43:35;;;;;;;;;;;;;;;7.42;78.01;101612.63;10421955;28;97190;-84
2023/12/23 04:48:39;;;;;;;;;;;;;;;7.32;78.25;101616.16;10421931;28;97259;-84
2023/12/23 04:53:46;;;;;;;;;;;;;;;7.34;77.91;101600.44;10421211;28;96667;-83
2023/12/23 04:58:50;;;;;;;;;;;;;;;7.32;78.31;101595.19;10421193;27;96910;-84
2023/12/23 05:03:54;;;;;;;;;;;;;;;7.36;78.00;101590.81;10421627;28;97403;-83
2023/12/23 05:09:01;;;;;;;;;;;;;;;7.33;78.15;101590.84;10420630;28;96663;-84
2023/12/23 05:14:05;;;;;;;;;;;;;;;7.22;78.50;101583.03;10421608;28;96673;-83
2023/12/23 05:19:09;;;;;;;;;;;;;;;7.15;78.64;101585.69;10420493;28;96783;-83
2023/12/23 05:24:16;;;;;;;;;;;;;;;7.06;79.23;101593.59;10420751;28;96722;-83
2023/12/23 05:29:20;;;;;;;;;;;;;;;7.03;79.01;101575.28;10419429;28;97580;-82
2023/12/23 05:34:25;;;;;;;;;;;;;;;7.00;79.24;101581.41;10420483;28;96678;-83
2023/12/23 05:39:32;;;;;;;;;;;;;;;7.02;79.41;101587.50;10420006;27;96647;-83
2023/12/23 05:44:39;;;;;;;;;;;;;;;7.01;79.10;101585.75;10420194;28;97332;-83
2023/12/23 05:49:43;;;;;;;;;;;;;;;7.00;79.34;101596.22;10419585;28;96617;-83
2023/12/23 05:54:52;;;;;;;;;;;;;;;7.04;79.54;101600.59;10419331;28;96720;-83
2023/12/23 05:59:57;;;;;;;;;;;;;;;7.06;79.41;101598.84;10419493;28;97060;-83
2023/12/23 06:05:01;;;;;;;;;;;;;;;7.03;79.16;101604.94;10419873;28;96793;-83
2023/12/23 06:10:08;;;;;;;;;;;;;;;7.03;79.38;101604.06;10419398;28;96773;-83
2023/12/23 06:15:11;;;;;;;;;;;;;;;7.08;79.86;101599.72;10419029;28;96677;-83
2023/12/23 06:20:16;;;;;;;;;;;;;;;7.15;79.05;101606.63;10418625;28;97350;-83
2023/12/23 06:25:22;;;;;;;;;;;;;;;7.12;79.15;101604.03;10418977;28;97383;-83
2023/12/23 06:30:25;;;;;;;;;;;;;;;7.12;78.96;101602.28;10419231;28;96582;-83
2023/12/23 06:35:29;;;;;;;;;;;;;;;7.20;78.68;101613.59;10417740;27;97260;-82
2023/12/23 06:40:36;;;;;;;;;;;;;;;7.31;78.41;101613.53;10418082;27;96786;-83
2023/12/23 06:45:40;;;;;;;;;;;;;;;7.28;78.07;101622.31;10418570;28;96891;-83
2023/12/23 06:50:44;;;;;;;;;;;;;;;7.25;78.45;101624.06;10417520;28;96654;-83
2023/12/23 06:55:50;;;;;;;;;;;;;;;7.25;78.18;101619.66;10418373;28;96777;-83
2023/12/23 07:00:54;;;;;;;;;;;;;;;7.19;78.61;101630.19;10417524;28;97337;-83
2023/12/23 07:05:58;;;;;;;;;;;;;;;7.23;78.46;101633.66;10417381;28;96669;-83
2023/12/23 07:11:05;;;;;;;;;;;;;;;7.22;78.54;101638.00;10416475;28;96862;-83
2023/12/23 07:16:09;;;;;;;;;;;;;;;7.27;77.93;101632.78;10417432;28;96798;-83
2023/12/23 07:21:13;;;;;;;;;;;;;;;7.22;78.19;101639.75;10417005;28;96636;-83
2023/12/23 07:26:22;;;;;;;;;;;;;;;7.31;77.86;101645.84;10416931;28;97838;-83
2023/12/23 07:31:28;;;;;;;;;;;;;;;7.36;77.78;101645.81;10417072;28;96698;-83
2023/12/23 07:36:32;;;;;;;;;;;;;;;7.35;77.60;101644.09;10416802;28;96825;-83
2023/12/23 07:41:39;;;;;;;;;;;;;;;7.27;77.65;101633.63;10385737;28;96652;-83
2023/12/23 07:46:46;;;;;;;;;;;;;;;7.38;77.33;101646.69;10413106;28;96630;-83
2023/12/23 07:51:50;;;;;;;;;;;;;;;7.21;77.42;101643.25;10423736;27;96783;-83
2023/12/23 07:56:56;;;;;;;;;;;;;;;7.14;78.04;101647.66;10423149;28;96816;-82
2023/12/23 08:02:00;;;;;;;;;;;;;;;7.13;77.91;101650.28;10421919;28;97292;-83
2023/12/23 08:07:05;;;;;;;;;;;;;;;7.05;78.41;101654.66;10423322;28;98298;-83
2023/12/23 08:12:12;;;;;;;;;;;;;;;7.09;78.40;101662.50;10422725;28;96656;-82
2023/12/23 08:17:16;;;;;;;;;;;;;;;7.12;78.28;101656.38;10422583;28;96761;-82
2023/12/23 08:22:21;;;;;;;;;;;;;;;7.11;78.46;101662.50;10422723;28;96616;-83
2023/12/23 08:27:28;;;;;;;;;;;;;;;7.17;78.09;101675.56;10422727;28;96590;-83
2023/12/23 08:32:32;;;;;;;;;;;;;;;7.21;78.01;101677.28;10422227;28;96687;-83
2023/12/23 08:37:37;;;;;;;;;;;;;;;7.26;77.68;101692.13;10422835;28;97356;-83
2023/12/23 08:42:45;;;;;;;;;;;;;;;7.25;78.13;101692.13;10422294;28;97264;-83
2023/12/23 08:47:48;;;;;;;;;;;;;;;7.42;77.81;101695.56;10421564;28;96903;-83
2023/12/23 08:52:53;;;;;;;;;;;;;;;7.41;77.08;101693.78;10420406;28;96609;-83
2023/12/23 08:58:00;;;;;;;;;;;;;;;7.58;76.97;101694.63;10420809;28;96946;-83
2023/12/23 09:03:04;;;;;;;;;;;;;;;7.69;76.23;101693.69;10421076;28;96877;-83
2023/12/23 09:08:08;;;;;;;;;;;;;;;7.81;75.64;101690.13;10420963;28;96783;-82
2023/12/23 09:13:16;;;;;;;;;;;;;;;7.84;75.38;101704.06;10421070;28;96649;-84
2023/12/23 09:18:21;;;;;;;;;;;;;;;7.99;75.07;101709.22;10421106;28;97387;-83
2023/12/23 09:23:25;;;;;;;;;;;;;;;8.20;74.89;101710.84;10420798;28;96995;-83
2023/12/23 09:28:33;;;;;;;;;;;;;;;8.31;73.97;101724.75;10420648;28;97800;-84
2023/12/23 09:33:39;;;;;;;;;;;;;;;8.34;73.69;101724.72;10420383;28;97158;-83
2023/12/23 09:38:44;;;;;;;;;;;;;;;8.46;73.13;101724.66;10420686;27;96803;-83
2023/12/23 09:43:51;;;;;;;;;;;;;;;8.54;73.54;101720.22;10418695;28;97630;-84
2023/12/23 09:48:55;;;;;;;;;;;;;;;8.61;72.97;101721.00;10419788;28;96691;-83
2023/12/23 09:54:02;;;;;;;;;;;;;;;8.66;72.87;101719.22;10419512;28;96823;-83
2023/12/23 09:59:11;;;;;;;;;;;;;;;8.61;73.18;101732.41;10418952;28;97467;-83
2023/12/23 10:04:15;;;;;;;;;;;;;;;8.70;72.79;101731.44;10419252;28;96675;-83
2023/12/23 10:09:19;;;;;;;;;;;;;;;8.72;73.21;101735.78;10418036;27;97363;-83
2023/12/23 10:14:26;;;;;;;;;;;;;;;8.72;72.72;101730.53;10419048;28;97325;-83
2023/12/23 10:19:31;;;;;;;;;;;;;;;8.70;72.73;101736.69;10420163;28;97288;-83
2023/12/23 10:24:38;;;;;;;;;;;;;;;8.91;72.87;101744.38;10418483;28;96579;-84
2023/12/23 10:29:49;;;;;;;;;;;;;;;8.87;72.29;101753.16;10418338;28;96580;-83
2023/12/23 10:34:57;;;;;;;;;;;;;;;8.87;72.43;101742.66;10417356;28;97020;-83
2023/12/23 10:40:13;;;;;;;;;;;;;;;8.93;72.49;101740.84;10418465;28;97315;-83
2023/12/23 10:45:21;;;;;;;;;;;;;;;9.05;71.38;101758.25;10418571;28;96581;-83
2023/12/23 10:50:29;;;;;;;;;;;;;;;8.94;72.25;101745.22;10418559;28;96736;-82
2023/12/23 10:55:35;;;;;;;;;;;;;;;9.02;71.22;101740.75;10417329;28;96796;-83
2023/12/23 11:00:42;;;;;;;;;;;;;;;9.08;71.14;101739.84;10417696;28;96578;-84
2023/12/23 11:05:48;;;;;;;;;;;;;;;9.27;70.80;101736.16;10417515;28;96564;-82
2023/12/23 11:10:52;;;;;;;;;;;;;;;9.31;71.33;101731.75;10418071;28;96758;-83
2023/12/23 11:15:59;;;;;;;;;;;;;;;9.32;70.20;101731.75;10418150;28;97252;-83
2023/12/23 11:21:03;;;;;;;;;;;;;;;9.38;70.40;101715.03;10423415;27;96623;-83
2023/12/23 11:26:27;;;;;;;;;;;;;;;9.43;69.84;101707.97;10422780;28;96787;-83
2023/12/23 11:31:35;;;;;;;;;;;;;;;9.47;70.58;101723.66;10403717;28;96764;-83
2023/12/23 11:36:42;;;;;;;;;;;;;;;9.34;70.12;101698.44;10383117;28;97054;-83
2023/12/23 11:41:47;;;;;;;;;;;;;;;9.43;70.56;101700.09;10390658;28;97079;-82
2023/12/23 11:46:55;;;;;;;;;;;;;;;9.56;69.02;101685.91;10423286;28;96929;-83
2023/12/23 11:51:59;;;;;;;;;;;;;;;9.63;69.09;101682.31;10423627;28;96764;-83
2023/12/23 11:57:03;;;;;;;;;;;;;;;9.66;68.75;101671.75;10423026;28;97391;-83
2023/12/23 12:02:09;;;;;;;;;;;;;;;9.75;69.30;101663.75;10424083;28;96677;-83
2023/12/23 12:07:14;;;;;;;;;;;;;;;9.77;68.26;101667.22;10422807;28;96653;-83
2023/12/23 12:12:18;;;;;;;;;;;;;;;9.70;68.70;101649.78;10423331;28;96606;-83
2023/12/23 12:17:25;;;;;;;;;;;;;;;9.86;68.51;101651.31;10421885;28;97424;-82
2023/12/23 12:22:31;;;;;;;;;;;;;;;9.89;68.23;101652.16;10422624;28;96757;-83
2023/12/23 12:27:35;;;;;;;;;;;;;;;10.05;68.30;101637.91;10372621;22;98660;-83
2023/12/23 12:32:44;;;;;;;;;;;;;;;9.97;68.08;101633.63;10365842;28;97005;-83
2023/12/23 12:37:47;;;;;;;;;;;;;;;9.91;68.14;101617.94;10339267;28;97251;-82
2023/12/23 12:42:51;;;;;;;;;;;;;;;9.91;68.49;101617.94;10339137;28;97512;-83
2023/12/23 12:47:56;;;;;;;;;;;;;;;9.84;68.33;101606.66;10377621;28;96778;-83
2023/12/23 12:53:01;;;;;;;;;;;;;;;9.76;68.70;101618.19;10345649;28;96615;-83
2023/12/23 12:58:04;;;;;;;;;;;;;;;9.78;68.91;101596.22;10338010;28;97256;-83
2023/12/23 13:03:09;;;;;;;;;;;;;;;9.92;69.23;101586.38;10338379;28;96609;-82
2023/12/23 13:08:14;;;;;;;;;;;;;;;9.96;68.80;101584.56;10336846;28;96734;-84
2023/12/23 13:13:17;;;;;;;;;;;;;;;9.91;67.98;101578.50;10338226;28;96955;-83
2023/12/23 13:18:22;;;;;;;;;;;;;;;10.59;67.10;101570.31;10337450;28;96673;-82
2023/12/23 13:23:26;;;;;;;;;;;;;;;11.98;63.37;101546.16;10312383;28;96787;-84
2023/12/23 13:28:29;;;;;;;;;;;;;;;12.32;61.04;101531.22;10336934;28;97010;-83
2023/12/23 13:33:37;;;;;;;;;;;;;;;11.80;61.63;101541.34;10337774;28;97000;-84
2023/12/23 13:38:42;;;;;;;;;;;;;;;11.23;64.12;101533.88;10337414;28;96702;-83
2023/12/23 13:43:45;;;;;;;;;;;;;;;10.83;65.03;101537.38;10336737;28;96798;-83
2023/12/23 13:48:50;;;;;;;;;;;;;;;10.69;65.49;101540.28;10336654;28;96717;-84
2023/12/23 13:53:54;;;;;;;;;;;;;;;10.60;66.62;101535.19;10336955;28;96703;-83
2023/12/23 13:58:57;;;;;;;;;;;;;;;10.60;66.19;101510.63;10335623;28;97435;-82
2023/12/23 14:04:02;;;;;;;;;;;;;;;10.63;66.33;101518.44;10336175;28;96738;-83
2023/12/23 14:09:06;;;;;;;;;;;;;;;10.78;66.27;101500.59;10336148;28;96690;-83
2023/12/23 14:14:09;;;;;;;;;;;;;;;10.85;65.94;101498.72;10335718;28;97092;-83
2023/12/23 14:19:14;;;;;;;;;;;;;;;10.80;66.01;101492.66;10336609;28;96976;-84
2023/12/23 14:24:17;;;;;;;;;;;;;;;10.84;66.47;101489.94;10335792;28;96708;-82
2023/12/23 14:29:21;;;;;;;;;;;;;;;10.97;66.16;101487.91;10335298;28;96688;-84
2023/12/23 14:34:25;;;;;;;;;;;;;;;10.96;66.36;101492.31;10336493;28;97449;-84
2023/12/23 14:39:30;;;;;;;;;;;;;;;10.87;65.97;101473.22;10335370;28;96773;-83
2023/12/23 14:44:34;;;;;;;;;;;;;;;10.84;66.64;101476.75;10335770;28;96646;-83
2023/12/23 14:49:41;;;;;;;;;;;;;;;12.16;63.80;101480.63;10334313;28;97294;-84
2023/12/23 14:54:46;;;;;;;;;;;;;;;12.55;61.75;101481.28;10338546;28;97300;-84
2023/12/23 14:59:51;;;;;;;;;;;;;;;13.20;60.27;101489.97;10343262;28;96619;-84
2023/12/23 15:04:57;;;;;;;;;;;;;;;13.18;59.10;101494.44;10342308;28;96889;-83
2023/12/23 15:10:03;;;;;;;;;;;;;;;13.27;59.20;101486.22;10343138;28;97433;-84
2023/12/23 15:15:08;;;;;;;;;;;;;;;13.31;59.14;101495.81;10342228;28;96810;-84
2023/12/23 15:20:15;;;;;;;;;;;;;;;13.43;58.07;101495.41;10341956;28;96791;-83
2023/12/23 15:25:19;;;;;;;;;;;;;;;13.12;58.90;101508.69;10342182;28;97191;-82
2023/12/23 15:30:23;;;;;;;;;;;;;;;13.16;59.06;101488.31;10341665;28;96601;-84
2023/12/23 15:35:30;;;;;;;;;;;;;;;13.12;59.38;101486.72;10341060;28;96840;-83
2023/12/23 15:40:35;;;;;;;;;;;;;;;12.75;59.41;101476.34;10340364;28;96747;-83
2023/12/23 15:45:39;;;;;;;;;;;;;;;12.73;60.22;101488.75;10341519;28;96873;-84
2023/12/23 15:50:45;;;;;;;;;;;;;;;12.62;60.63;101467.00;10340913;28;97403;-83
2023/12/23 15:55:49;;;;;;;;;;;;;;;12.40;61.32;101468.53;10340495;28;96792;-82
2023/12/23 16:00:54;;;;;;;;;;;;;;;12.30;61.34;101461.78;10299746;28;96787;-83
2023/12/23 16:06:01;;;;;;;;;;;;;;;11.90;62.52;101476.91;10298757;28;97154;-84
2023/12/23 16:11:05;;;;;;;;;;;;;;;11.50;63.79;101489.34;10299203;28;97140;-83
2023/12/23 16:16:10;;;;;;;;;;;;;;;11.10;65.34;101485.00;10327241;28;96772;-84
2023/12/23 16:21:17;;;;;;;;;;;;;;;10.88;66.52;101490.72;10340266;28;96909;-84
2023/12/23 16:26:21;;;;;;;;;;;;;;;10.84;66.27;101484.66;10339114;28;96670;-84
2023/12/23 16:31:25;;;;;;;;;;;;;;;10.70;66.99;101478.81;10338470;28;97448;-84
2023/12/23 16:36:31;;;;;;;;;;;;;;;10.48;68.08;101513.50;10339312;28;96717;-83
2023/12/23 16:41:36;;;;;;;;;;;;;;;10.32;68.64;101498.88;10340059;28;96970;-84
2023/12/23 16:46:39;;;;;;;;;;;;;;;10.24;69.34;101493.78;10339029;28;96689;-84
2023/12/23 16:51:45;;;;;;;;;;;;;;;10.17;69.55;101502.69;10338888;28;96718;-84
2023/12/23 16:56:50;;;;;;;;;;;;;;;10.04;70.05;101494.13;10338309;28;96906;-84
2023/12/23 17:01:54;;;;;;;;;;;;;;;9.90;70.51;101505.81;10338632;28;96719;-84
2023/12/23 17:07:02;;;;;;;;;;;;;;;9.83;70.36;101507.63;10338849;28;96758;-84
2023/12/23 17:12:07;;;;;;;;;;;;;;;9.75;70.74;101506.03;10337959;28;97079;-84
2023/12/23 17:17:12;;;;;;;;;;;;;;;9.57;71.89;101503.72;10337524;28;96673;-83
2023/12/23 17:22:18;;;;;;;;;;;;;;;9.52;71.77;101524.78;10336418;28;96763;-84
2023/12/23 17:27:25;;;;;;;;;;;;;;;9.49;71.87;101524.84;10336837;28;96749;-83
2023/12/23 17:32:30;;;;;;;;;;;;;;;9.39;72.85;101522.38;10337372;28;96668;-84
2023/12/23 17:37:37;;;;;;;;;;;;;;;9.31;73.45;101540.00;10337177;28;96691;-84
2023/12/23 17:42:41;;;;;;;;;;;;;;;9.29;72.75;101532.16;10336970;28;96964;-83
2023/12/23 17:47:49;;;;;;;;;;;;;;;9.28;73.22;101529.56;10336740;28;96653;-83
2023/12/23 17:52:56;;;;;;;;;;;;;;;9.21;73.87;101538.38;10336836;28;96647;-83
2023/12/23 17:58:01;;;;;;;;;;;;;;;9.14;73.83;101542.81;10322642;28;96696;-83
2023/12/23 18:03:06;;;;;;;;;;;;;;;9.07;74.21;101539.41;10336694;28;96726;-84
2023/12/23 18:08:12;;;;;;;;;;;;;;;9.01;74.85;101547.38;10336578;28;96731;-84
2023/12/23 18:13:20;;;;;;;;;;;;;;;9.00;74.75;101547.38;10335425;28;97237;-83
2023/12/23 18:18:25;;;;;;;;;;;;;;;8.93;75.15;101548.38;10336132;28;96638;-84
2023/12/23 18:23:32;;;;;;;;;;;;;;;8.84;74.72;101551.09;10336534;28;96728;-84
2023/12/23 18:28:36;;;;;;;;;;;;;;;8.82;75.23;101550.25;10334553;28;97437;-83
2023/12/23 18:33:40;;;;;;;;;;;;;;;8.76;75.87;101540.69;10335583;28;97201;-84
2023/12/23 18:38:47;;;;;;;;;;;;;;;8.73;75.70;101550.34;10335413;28;97765;-83
2023/12/23 18:43:52;;;;;;;;;;;;;;;8.69;75.66;101549.50;10335344;28;97086;-84
2023/12/23 18:48:56;;;;;;;;;;;;;;;8.65;75.95;101541.69;10335422;28;96857;-83
2023/12/23 18:54:03;;;;;;;;;;;;;;;8.66;76.56;101543.41;10334829;28;96677;-82
2023/12/23 18:59:07;;;;;;;;;;;;;;;8.60;76.04;101546.97;10334881;28;97679;-83
2023/12/23 19:04:12;;;;;;;;;;;;;;;8.61;75.94;101566.22;10334291;28;96979;-83
2023/12/23 19:09:19;;;;;;;;;;;;;;;8.55;76.46;101553.19;10334548;28;97240;-83
2023/12/23 19:14:24;;;;;;;;;;;;;;;8.55;76.10;101564.53;10334515;28;97214;-83
2023/12/23 19:19:28;;;;;;;;;;;;;;;8.50;76.22;101557.59;10334589;28;96673;-83
2023/12/23 19:24:38;;;;;;;;;;;;;;;8.48;76.37;101554.13;10333504;28;96811;-83
2023/12/23 19:29:44;;;;;;;;;;;;;;;8.46;76.44;101553.28;10334493;28;97273;-85
2023/12/23 19:34:48;;;;;;;;;;;;;;;8.45;77.20;101554.13;10334038;28;96696;-83
2023/12/23 19:40:01;;;;;;;;;;;;;;;8.42;76.91;101544.56;10336771;28;96993;-84
2023/12/23 19:45:14;;;;;;;;;;;;;;;8.41;77.43;101552.47;10340936;28;96638;-84
2023/12/23 19:50:19;;;;;;;;;;;;;;;8.40;76.81;101550.69;10341351;28;97244;-84
2023/12/23 19:55:26;;;;;;;;;;;;;;;8.40;77.59;101541.09;10339465;28;97418;-83
2023/12/23 20:00:30;;;;;;;;;;;;;;;8.39;77.37;101548.97;10340447;28;97097;-83
2023/12/23 20:05:37;;;;;;;;;;;;;;;8.39;77.72;101546.34;10356743;28;97225;-83
2023/12/23 20:10:44;;;;;;;;;;;;;;;8.33;77.56;101551.63;10339997;28;96805;-84
2023/12/23 20:15:48;;;;;;;;;;;;;;;8.34;77.68;101563.88;10339782;28;96720;-83
2023/12/23 20:20:52;;;;;;;;;;;;;;;8.37;77.40;101553.38;10339568;28;97209;-83
2023/12/23 20:25:59;;;;;;;;;;;;;;;8.37;77.35;101548.13;10339035;28;96787;-84
2023/12/23 20:31:03;;;;;;;;;;;;;;;8.31;77.51;101546.41;10340535;28;97391;-83
2023/12/23 20:36:07;;;;;;;;;;;;;;;8.31;78.09;101541.16;10339247;28;96754;-84
2023/12/23 20:41:15;;;;;;;;;;;;;;;8.31;77.59;101541.16;10339427;28;97347;-84
2023/12/23 20:46:19;;;;;;;;;;;;;;;8.27;77.81;101539.50;10337855;28;97171;-83
2023/12/23 20:51:26;;;;;;;;;;;;;;;8.25;78.20;101530.75;10338610;28;97727;-83
2023/12/23 20:56:33;;;;;;;;;;;;;;;8.27;77.44;101528.13;10338424;28;96854;-84
2023/12/23 21:01:37;;;;;;;;;;;;;;;8.26;77.58;101523.75;10338659;28;96682;-83
2023/12/23 21:06:41;;;;;;;;;;;;;;;8.25;77.54;101541.25;10337966;28;97034;-84
2023/12/23 21:11:51;;;;;;;;;;;;;;;8.24;77.84;101530.78;10338351;28;96557;-83
2023/12/23 21:16:55;;;;;;;;;;;;;;;8.27;77.81;101541.22;10338305;28;97161;-84
2023/12/23 21:21:59;;;;;;;;;;;;;;;8.25;77.47;101540.38;10357764;28;96949;-83
2023/12/23 21:27:05;;;;;;;;;;;;;;;8.21;78.10;101529.03;10378841;28;96637;-84
2023/12/23 21:32:09;;;;;;;;;;;;;;;8.22;77.50;101543.03;10378929;28;96749;-84
2023/12/23 21:37:14;;;;;;;;;;;;;;;8.18;77.79;101547.44;10365719;28;96723;-84
2023/12/23 21:42:21;;;;;;;;;;;;;;;8.18;78.27;101552.69;10337405;28;97003;-84
2023/12/23 21:47:25;;;;;;;;;;;;;;;8.23;77.91;101574.47;10337314;28;97102;-83
2023/12/23 21:52:29;;;;;;;;;;;;;;;8.22;77.78;101562.22;10337142;28;96760;-84
2023/12/23 21:57:36;;;;;;;;;;;;;;;8.15;78.46;101550.06;10334577;28;96818;-83
2023/12/23 22:02:40;;;;;;;;;;;;;;;8.11;78.22;101548.38;10312918;28;97361;-83
2023/12/23 22:07:44;;;;;;;;;;;;;;;8.10;78.33;101559.72;10336621;28;97696;-83
2023/12/23 22:12:51;;;;;;;;;;;;;;;8.10;78.45;101561.50;10337115;28;97196;-84
2023/12/23 22:17:55;;;;;;;;;;;;;;;8.08;78.39;101566.75;10336482;28;96934;-83
2023/12/23 22:23:00;;;;;;;;;;;;;;;8.11;78.03;101565.84;10363589;28;97617;-84
2023/12/23 22:28:07;;;;;;;;;;;;;;;8.08;78.21;101560.63;10365138;28;97556;-83
2023/12/23 22:33:11;;;;;;;;;;;;;;;8.06;78.34;101565.03;10335892;28;96635;-84
2023/12/23 22:38:14;;;;;;;;;;;;;;;8.06;79.05;101571.13;10335952;28;96980;-83
2023/12/23 22:43:22;;;;;;;;;;;;;;;8.05;78.57;101565.91;10336409;28;96958;-83
2023/12/23 22:48:27;;;;;;;;;;;;;;;8.08;78.72;101582.50;10335606;28;96597;-85
2023/12/23 22:53:31;;;;;;;;;;;;;;;8.10;78.72;101588.56;10335444;28;96656;-84
2023/12/23 22:58:40;;;;;;;;;;;;;;;8.10;78.89;101583.31;10307888;28;96587;-84
2023/12/23 23:03:45;;;;;;;;;;;;;;;8.13;78.45;101588.56;10335567;28;97323;-83
2023/12/23 23:08:52;;;;;;;;;;;;;;;8.13;78.40;101612.16;10335288;28;96636;-83
2023/12/23 23:13:59;;;;;;;;;;;;;;;8.11;78.70;101613.03;10335782;28;96626;-83
2023/12/23 23:19:03;;;;;;;;;;;;;;;8.09;78.42;101618.28;10341132;28;97355;-84
2023/12/23 23:24:07;;;;;;;;;;;;;;;8.10;78.22;101611.31;10341724;28;96595;-84
2023/12/23 23:29:17;;;;;;;;;;;;;;;8.11;78.09;101615.66;10341118;28;96878;-84
2023/12/23 23:34:23;;;;;;;;;;;;;;;8.07;77.84;101609.56;10341707;28;97236;-83
2023/12/23 23:39:27;;;;;;;;;;;;;;;8.00;77.86;101592.13;10340882;28;96778;-83
2023/12/23 23:44:33;;;;;;;;;;;;;;;7.96;78.22;101590.44;10341179;28;96954;-83
2023/12/23 23:49:37;;;;;;;;;;;;;;;7.90;78.09;101603.59;10340428;28;96595;-84
2023/12/23 23:54:42;;;;;;;;;;;;;;;7.87;77.91;101607.09;10341016;28;96679;-83
2023/12/23 23:59:48;;;;;;;;;;;;;;;7.81;78.34;101604.53;10340194;28;96791;-84
